sensor_id;sensor_type;location;lat;lon;timestamp;P1;durP1;ratioP1;P2;durP2;ratioP2
20721;SDS011;10522;52.198;9.890;2023-04-16T00:00:54;32.30;;;22.77;;
20721;SDS011;10522;52.198;9.890;2023-04-16T00:03:19;29.87;;;22.37;;
20721;SDS011;10522;52.198;9.890;2023-04-16T00:05:45;29.57;;;22.37;;
20721;SDS011;10522;52.198;9.890;2023-04-16T00:08:11;32.27;;;21.90;;
20721;SDS011;10522;52.198;9.890;2023-04-16T00:10:36;31.53;;;23.27;;
20721;SDS011;10522;52.198;9.890;2023-04-16T00:13:03;30.20;;;21.80;;
20721;SDS011;10522;52.198;9.890;2023-04-16T00:15:29;34.83;;;21.33;;
20721;SDS011;10522;52.198;9.890;2023-04-16T00:17:54;30.60;;;23.77;;
20721;SDS011;10522;52.198;9.890;2023-04-16T00:20:20;34.87;;;23.47;;
20721;SDS011;10522;52.198;9.890;2023-04-16T00:22:46;30.93;;;23.27;;
20721;SDS011;10522;52.198;9.890;2023-04-16T00:25:12;35.07;;;23.40;;
20721;SDS011;10522;52.198;9.890;2023-04-16T00:27:38;32.70;;;22.77;;
20721;SDS011;10522;52.198;9.890;2023-04-16T00:30:04;30.07;;;21.33;;
20721;SDS011;10522;52.198;9.890;2023-04-16T00:32:30;36.20;;;23.77;;
20721;SDS011;10522;52.198;9.890;2023-04-16T00:34:56;33.80;;;25.17;;
20721;SDS011;10522;52.198;9.890;2023-04-16T00:37:21;31.87;;;23.77;;
20721;SDS011;10522;52.198;9.890;2023-04-16T00:39:47;37.00;;;25.53;;
20721;SDS011;10522;52.198;9.890;2023-04-16T00:42:13;38.43;;;24.43;;
20721;SDS011;10522;52.198;9.890;2023-04-16T00:44:39;35.67;;;24.83;;
20721;SDS011;10522;52.198;9.890;2023-04-16T00:47:05;34.00;;;23.67;;
20721;SDS011;10522;52.198;9.890;2023-04-16T00:49:31;34.07;;;24.47;;
20721;SDS011;10522;52.198;9.890;2023-04-16T00:51:57;40.00;;;23.97;;
20721;SDS011;10522;52.198;9.890;2023-04-16T00:54:23;33.20;;;24.57;;
20721;SDS011;10522;52.198;9.890;2023-04-16T00:56:50;36.43;;;26.20;;
20721;SDS011;10522;52.198;9.890;2023-04-16T00:59:15;36.93;;;27.00;;
20721;SDS011;10522;52.198;9.890;2023-04-16T01:01:41;36.20;;;25.30;;
20721;SDS011;10522;52.198;9.890;2023-04-16T01:04:07;32.43;;;24.23;;
20721;SDS011;10522;52.198;9.890;2023-04-16T01:06:33;36.23;;;25.10;;
20721;SDS011;10522;52.198;9.890;2023-04-16T01:08:58;32.67;;;24.10;;
20721;SDS011;10522;52.198;9.890;2023-04-16T01:11:24;36.97;;;24.40;;
20721;SDS011;10522;52.198;9.890;2023-04-16T01:13:50;36.57;;;25.10;;
20721;SDS011;10522;52.198;9.890;2023-04-16T01:16:15;34.93;;;25.10;;
20721;SDS011;10522;52.198;9.890;2023-04-16T01:18:41;35.40;;;25.10;;
20721;SDS011;10522;52.198;9.890;2023-04-16T01:21:07;37.13;;;24.53;;
20721;SDS011;10522;52.198;9.890;2023-04-16T01:23:32;38.13;;;24.33;;
20721;SDS011;10522;52.198;9.890;2023-04-16T01:25:58;37.33;;;26.00;;
20721;SDS011;10522;52.198;9.890;2023-04-16T01:28:24;37.93;;;25.10;;
20721;SDS011;10522;52.198;9.890;2023-04-16T01:30:49;37.20;;;26.47;;
20721;SDS011;10522;52.198;9.890;2023-04-16T01:33:15;44.70;;;28.90;;
20721;SDS011;10522;52.198;9.890;2023-04-16T01:35:42;42.67;;;27.17;;
20721;SDS011;10522;52.198;9.890;2023-04-16T01:38:08;40.03;;;28.00;;
20721;SDS011;10522;52.198;9.890;2023-04-16T01:40:34;42.30;;;26.43;;
20721;SDS011;10522;52.198;9.890;2023-04-16T01:43:00;42.90;;;25.43;;
20721;SDS011;10522;52.198;9.890;2023-04-16T01:45:26;37.20;;;26.87;;
20721;SDS011;10522;52.198;9.890;2023-04-16T01:47:51;38.47;;;27.97;;
20721;SDS011;10522;52.198;9.890;2023-04-16T01:50:20;42.73;;;27.83;;
20721;SDS011;10522;52.198;9.890;2023-04-16T01:52:47;38.33;;;27.87;;
20721;SDS011;10522;52.198;9.890;2023-04-16T01:55:12;34.37;;;25.00;;
20721;SDS011;10522;52.198;9.890;2023-04-16T01:57:38;37.00;;;26.53;;
20721;SDS011;10522;52.198;9.890;2023-04-16T02:00:04;40.23;;;25.07;;
20721;SDS011;10522;52.198;9.890;2023-04-16T02:02:30;34.07;;;25.93;;
20721;SDS011;10522;52.198;9.890;2023-04-16T02:04:56;38.77;;;26.50;;
20721;SDS011;10522;52.198;9.890;2023-04-16T02:07:21;35.67;;;25.80;;
20721;SDS011;10522;52.198;9.890;2023-04-16T02:09:48;41.83;;;27.50;;
20721;SDS011;10522;52.198;9.890;2023-04-16T02:12:14;36.37;;;25.03;;
20721;SDS011;10522;52.198;9.890;2023-04-16T02:14:41;38.57;;;26.00;;
20721;SDS011;10522;52.198;9.890;2023-04-16T02:17:06;38.50;;;26.50;;
20721;SDS011;10522;52.198;9.890;2023-04-16T02:19:32;46.17;;;28.23;;
20721;SDS011;10522;52.198;9.890;2023-04-16T02:21:57;41.77;;;27.23;;
20721;SDS011;10522;52.198;9.890;2023-04-16T02:24:25;37.87;;;26.07;;
20721;SDS011;10522;52.198;9.890;2023-04-16T02:26:51;42.97;;;26.17;;
20721;SDS011;10522;52.198;9.890;2023-04-16T02:29:16;44.50;;;27.83;;
20721;SDS011;10522;52.198;9.890;2023-04-16T02:31:42;38.30;;;26.10;;
20721;SDS011;10522;52.198;9.890;2023-04-16T02:34:08;35.50;;;26.30;;
20721;SDS011;10522;52.198;9.890;2023-04-16T02:36:33;39.13;;;26.80;;
20721;SDS011;10522;52.198;9.890;2023-04-16T02:38:59;33.87;;;25.37;;
20721;SDS011;10522;52.198;9.890;2023-04-16T02:41:25;37.83;;;26.07;;
20721;SDS011;10522;52.198;9.890;2023-04-16T02:43:50;41.47;;;27.53;;
20721;SDS011;10522;52.198;9.890;2023-04-16T02:46:16;43.87;;;28.10;;
20721;SDS011;10522;52.198;9.890;2023-04-16T02:48:41;38.93;;;27.47;;
20721;SDS011;10522;52.198;9.890;2023-04-16T02:51:07;42.47;;;29.07;;
20721;SDS011;10522;52.198;9.890;2023-04-16T02:53:33;47.43;;;29.73;;
20721;SDS011;10522;52.198;9.890;2023-04-16T02:55:58;45.57;;;30.57;;
20721;SDS011;10522;52.198;9.890;2023-04-16T02:58:24;45.30;;;30.10;;
20721;SDS011;10522;52.198;9.890;2023-04-16T03:00:50;41.37;;;27.00;;
20721;SDS011;10522;52.198;9.890;2023-04-16T03:03:17;48.63;;;29.40;;
20721;SDS011;10522;52.198;9.890;2023-04-16T03:05:43;37.23;;;27.03;;
20721;SDS011;10522;52.198;9.890;2023-04-16T03:08:09;41.43;;;28.60;;
20721;SDS011;10522;52.198;9.890;2023-04-16T03:10:35;40.73;;;28.33;;
20721;SDS011;10522;52.198;9.890;2023-04-16T03:13:01;43.67;;;27.27;;
20721;SDS011;10522;52.198;9.890;2023-04-16T03:15:27;38.07;;;27.13;;
20721;SDS011;10522;52.198;9.890;2023-04-16T03:17:53;39.60;;;26.40;;
20721;SDS011;10522;52.198;9.890;2023-04-16T03:20:18;45.83;;;28.23;;
20721;SDS011;10522;52.198;9.890;2023-04-16T03:22:48;42.53;;;27.83;;
20721;SDS011;10522;52.198;9.890;2023-04-16T03:25:16;39.70;;;26.50;;
20721;SDS011;10522;52.198;9.890;2023-04-16T03:27:42;46.43;;;27.60;;
20721;SDS011;10522;52.198;9.890;2023-04-16T03:30:12;43.63;;;28.33;;
20721;SDS011;10522;52.198;9.890;2023-04-16T03:32:38;42.93;;;27.20;;
20721;SDS011;10522;52.198;9.890;2023-04-16T03:35:04;46.73;;;26.30;;
20721;SDS011;10522;52.198;9.890;2023-04-16T03:37:31;39.17;;;26.33;;
20721;SDS011;10522;52.198;9.890;2023-04-16T03:39:57;40.23;;;25.23;;
20721;SDS011;10522;52.198;9.890;2023-04-16T03:42:23;40.47;;;26.67;;
20721;SDS011;10522;52.198;9.890;2023-04-16T03:44:48;40.93;;;26.50;;
20721;SDS011;10522;52.198;9.890;2023-04-16T03:47:14;39.63;;;26.20;;
20721;SDS011;10522;52.198;9.890;2023-04-16T03:49:40;38.17;;;25.70;;
20721;SDS011;10522;52.198;9.890;2023-04-16T03:52:06;38.53;;;26.33;;
20721;SDS011;10522;52.198;9.890;2023-04-16T03:54:31;39.80;;;25.77;;
20721;SDS011;10522;52.198;9.890;2023-04-16T03:56:57;34.80;;;25.20;;
20721;SDS011;10522;52.198;9.890;2023-04-16T03:59:22;36.40;;;26.30;;
20721;SDS011;10522;52.198;9.890;2023-04-16T04:01:48;41.80;;;26.57;;
20721;SDS011;10522;52.198;9.890;2023-04-16T04:04:14;40.80;;;26.07;;
20721;SDS011;10522;52.198;9.890;2023-04-16T04:06:40;37.57;;;24.30;;
20721;SDS011;10522;52.198;9.890;2023-04-16T04:09:06;37.03;;;24.87;;
20721;SDS011;10522;52.198;9.890;2023-04-16T04:11:31;39.63;;;26.83;;
20721;SDS011;10522;52.198;9.890;2023-04-16T04:13:57;43.30;;;26.17;;
20721;SDS011;10522;52.198;9.890;2023-04-16T04:16:22;38.90;;;26.67;;
20721;SDS011;10522;52.198;9.890;2023-04-16T04:18:48;40.40;;;25.07;;
20721;SDS011;10522;52.198;9.890;2023-04-16T04:21:14;40.33;;;26.20;;
20721;SDS011;10522;52.198;9.890;2023-04-16T04:23:39;43.43;;;25.90;;
20721;SDS011;10522;52.198;9.890;2023-04-16T04:26:06;39.63;;;26.90;;
20721;SDS011;10522;52.198;9.890;2023-04-16T04:28:32;43.93;;;26.53;;
20721;SDS011;10522;52.198;9.890;2023-04-16T04:30:59;40.97;;;25.93;;
20721;SDS011;10522;52.198;9.890;2023-04-16T04:33:25;45.57;;;27.07;;
20721;SDS011;10522;52.198;9.890;2023-04-16T04:35:52;46.67;;;27.93;;
20721;SDS011;10522;52.198;9.890;2023-04-16T04:38:18;47.40;;;28.83;;
20721;SDS011;10522;52.198;9.890;2023-04-16T04:40:45;40.93;;;25.33;;
20721;SDS011;10522;52.198;9.890;2023-04-16T04:43:14;42.70;;;26.77;;
20721;SDS011;10522;52.198;9.890;2023-04-16T04:45:40;42.97;;;25.90;;
20721;SDS011;10522;52.198;9.890;2023-04-16T04:48:05;41.97;;;25.60;;
20721;SDS011;10522;52.198;9.890;2023-04-16T04:50:31;40.40;;;27.17;;
20721;SDS011;10522;52.198;9.890;2023-04-16T04:52:56;40.10;;;24.97;;
20721;SDS011;10522;52.198;9.890;2023-04-16T04:55:22;47.70;;;27.50;;
20721;SDS011;10522;52.198;9.890;2023-04-16T04:57:48;48.90;;;26.77;;
20721;SDS011;10522;52.198;9.890;2023-04-16T05:00:14;48.87;;;28.10;;
20721;SDS011;10522;52.198;9.890;2023-04-16T05:02:40;43.80;;;27.77;;
20721;SDS011;10522;52.198;9.890;2023-04-16T05:05:06;43.90;;;27.87;;
20721;SDS011;10522;52.198;9.890;2023-04-16T05:07:32;44.77;;;28.27;;
20721;SDS011;10522;52.198;9.890;2023-04-16T05:09:57;44.97;;;27.70;;
20721;SDS011;10522;52.198;9.890;2023-04-16T05:12:23;42.40;;;26.77;;
20721;SDS011;10522;52.198;9.890;2023-04-16T05:14:48;40.83;;;26.67;;
20721;SDS011;10522;52.198;9.890;2023-04-16T05:17:14;39.47;;;26.23;;
20721;SDS011;10522;52.198;9.890;2023-04-16T05:19:40;40.37;;;24.37;;
20721;SDS011;10522;52.198;9.890;2023-04-16T05:22:05;38.13;;;25.57;;
20721;SDS011;10522;52.198;9.890;2023-04-16T05:24:31;36.80;;;24.37;;
20721;SDS011;10522;52.198;9.890;2023-04-16T05:26:57;38.87;;;23.77;;
20721;SDS011;10522;52.198;9.890;2023-04-16T05:29:22;39.37;;;24.27;;
20721;SDS011;10522;52.198;9.890;2023-04-16T05:31:48;44.67;;;28.57;;
20721;SDS011;10522;52.198;9.890;2023-04-16T05:34:14;38.40;;;25.40;;
20721;SDS011;10522;52.198;9.890;2023-04-16T05:36:39;40.87;;;26.07;;
20721;SDS011;10522;52.198;9.890;2023-04-16T05:39:05;41.57;;;25.53;;
20721;SDS011;10522;52.198;9.890;2023-04-16T05:41:31;52.50;;;28.83;;
20721;SDS011;10522;52.198;9.890;2023-04-16T05:43:57;40.73;;;25.43;;
20721;SDS011;10522;52.198;9.890;2023-04-16T05:46:23;44.83;;;26.37;;
20721;SDS011;10522;52.198;9.890;2023-04-16T05:48:49;43.73;;;27.60;;
20721;SDS011;10522;52.198;9.890;2023-04-16T05:51:14;40.20;;;26.57;;
20721;SDS011;10522;52.198;9.890;2023-04-16T05:53:40;41.93;;;24.87;;
20721;SDS011;10522;52.198;9.890;2023-04-16T05:56:07;42.87;;;26.70;;
20721;SDS011;10522;52.198;9.890;2023-04-16T05:58:33;37.73;;;25.07;;
20721;SDS011;10522;52.198;9.890;2023-04-16T06:00:59;38.80;;;25.23;;
20721;SDS011;10522;52.198;9.890;2023-04-16T06:03:25;41.50;;;23.83;;
20721;SDS011;10522;52.198;9.890;2023-04-16T06:05:51;38.30;;;25.00;;
20721;SDS011;10522;52.198;9.890;2023-04-16T06:08:16;42.30;;;25.93;;
20721;SDS011;10522;52.198;9.890;2023-04-16T06:10:44;43.03;;;24.50;;
20721;SDS011;10522;52.198;9.890;2023-04-16T06:13:11;36.53;;;23.37;;
20721;SDS011;10522;52.198;9.890;2023-04-16T06:15:36;38.83;;;23.63;;
20721;SDS011;10522;52.198;9.890;2023-04-16T06:18:02;38.57;;;24.63;;
20721;SDS011;10522;52.198;9.890;2023-04-16T06:20:28;38.03;;;23.87;;
20721;SDS011;10522;52.198;9.890;2023-04-16T06:22:54;35.57;;;23.67;;
20721;SDS011;10522;52.198;9.890;2023-04-16T06:25:20;41.07;;;26.07;;
20721;SDS011;10522;52.198;9.890;2023-04-16T06:27:45;42.80;;;25.47;;
20721;SDS011;10522;52.198;9.890;2023-04-16T06:30:12;34.60;;;22.73;;
20721;SDS011;10522;52.198;9.890;2023-04-16T06:32:38;42.90;;;24.90;;
20721;SDS011;10522;52.198;9.890;2023-04-16T06:35:04;38.07;;;23.80;;
20721;SDS011;10522;52.198;9.890;2023-04-16T06:37:30;43.37;;;24.23;;
20721;SDS011;10522;52.198;9.890;2023-04-16T06:39:56;34.27;;;22.73;;
20721;SDS011;10522;52.198;9.890;2023-04-16T06:42:22;40.93;;;24.10;;
20721;SDS011;10522;52.198;9.890;2023-04-16T06:44:47;44.43;;;25.20;;
20721;SDS011;10522;52.198;9.890;2023-04-16T06:47:13;35.73;;;24.07;;
20721;SDS011;10522;52.198;9.890;2023-04-16T06:49:38;35.53;;;23.70;;
20721;SDS011;10522;52.198;9.890;2023-04-16T06:52:04;37.10;;;22.83;;
20721;SDS011;10522;52.198;9.890;2023-04-16T06:54:30;42.10;;;24.40;;
20721;SDS011;10522;52.198;9.890;2023-04-16T06:56:55;33.57;;;22.27;;
20721;SDS011;10522;52.198;9.890;2023-04-16T06:59:21;36.07;;;20.80;;
20721;SDS011;10522;52.198;9.890;2023-04-16T07:01:47;34.43;;;22.23;;
20721;SDS011;10522;52.198;9.890;2023-04-16T07:04:12;35.73;;;22.80;;
20721;SDS011;10522;52.198;9.890;2023-04-16T07:06:38;31.00;;;21.63;;
20721;SDS011;10522;52.198;9.890;2023-04-16T07:09:03;32.27;;;20.93;;
20721;SDS011;10522;52.198;9.890;2023-04-16T07:11:29;32.00;;;20.80;;
20721;SDS011;10522;52.198;9.890;2023-04-16T07:13:55;34.60;;;22.53;;
20721;SDS011;10522;52.198;9.890;2023-04-16T07:16:21;34.70;;;20.60;;
20721;SDS011;10522;52.198;9.890;2023-04-16T07:18:47;33.50;;;21.77;;
20721;SDS011;10522;52.198;9.890;2023-04-16T07:21:13;33.33;;;21.60;;
20721;SDS011;10522;52.198;9.890;2023-04-16T07:23:38;32.83;;;20.80;;
20721;SDS011;10522;52.198;9.890;2023-04-16T07:26:04;35.33;;;21.40;;
20721;SDS011;10522;52.198;9.890;2023-04-16T07:28:30;31.50;;;20.63;;
20721;SDS011;10522;52.198;9.890;2023-04-16T07:30:55;30.03;;;21.23;;
20721;SDS011;10522;52.198;9.890;2023-04-16T07:33:21;30.73;;;19.27;;
20721;SDS011;10522;52.198;9.890;2023-04-16T07:35:47;32.27;;;19.83;;
20721;SDS011;10522;52.198;9.890;2023-04-16T07:38:12;36.27;;;21.03;;
20721;SDS011;10522;52.198;9.890;2023-04-16T07:40:38;29.87;;;19.03;;
20721;SDS011;10522;52.198;9.890;2023-04-16T07:43:04;33.23;;;20.03;;
20721;SDS011;10522;52.198;9.890;2023-04-16T07:45:30;28.17;;;20.00;;
20721;SDS011;10522;52.198;9.890;2023-04-16T07:47:56;34.10;;;19.83;;
20721;SDS011;10522;52.198;9.890;2023-04-16T07:50:21;29.63;;;19.87;;
20721;SDS011;10522;52.198;9.890;2023-04-16T07:52:47;32.20;;;19.40;;
20721;SDS011;10522;52.198;9.890;2023-04-16T07:55:13;31.17;;;18.67;;
20721;SDS011;10522;52.198;9.890;2023-04-16T07:57:39;31.13;;;19.00;;
20721;SDS011;10522;52.198;9.890;2023-04-16T08:00:05;36.63;;;20.53;;
20721;SDS011;10522;52.198;9.890;2023-04-16T08:02:31;29.23;;;19.60;;
20721;SDS011;10522;52.198;9.890;2023-04-16T08:04:57;33.93;;;21.63;;
20721;SDS011;10522;52.198;9.890;2023-04-16T08:07:23;28.13;;;18.50;;
20721;SDS011;10522;52.198;9.890;2023-04-16T08:09:51;27.20;;;18.83;;
20721;SDS011;10522;52.198;9.890;2023-04-16T08:12:17;33.87;;;20.00;;
20721;SDS011;10522;52.198;9.890;2023-04-16T08:14:44;31.23;;;19.67;;
20721;SDS011;10522;52.198;9.890;2023-04-16T08:17:10;27.20;;;18.07;;
20721;SDS011;10522;52.198;9.890;2023-04-16T08:19:36;27.33;;;17.17;;
20721;SDS011;10522;52.198;9.890;2023-04-16T08:22:02;28.30;;;18.43;;
20721;SDS011;10522;52.198;9.890;2023-04-16T08:24:28;31.33;;;18.27;;
20721;SDS011;10522;52.198;9.890;2023-04-16T08:26:53;26.10;;;17.43;;
20721;SDS011;10522;52.198;9.890;2023-04-16T08:29:19;26.10;;;18.40;;
20721;SDS011;10522;52.198;9.890;2023-04-16T08:31:45;30.00;;;19.80;;
20721;SDS011;10522;52.198;9.890;2023-04-16T08:34:10;30.33;;;18.70;;
20721;SDS011;10522;52.198;9.890;2023-04-16T08:36:36;26.83;;;17.17;;
20721;SDS011;10522;52.198;9.890;2023-04-16T08:39:02;32.37;;;18.13;;
20721;SDS011;10522;52.198;9.890;2023-04-16T08:41:28;30.60;;;18.47;;
20721;SDS011;10522;52.198;9.890;2023-04-16T08:43:56;27.70;;;18.20;;
20721;SDS011;10522;52.198;9.890;2023-04-16T08:46:25;31.13;;;19.47;;
20721;SDS011;10522;52.198;9.890;2023-04-16T08:48:53;29.00;;;17.53;;
20721;SDS011;10522;52.198;9.890;2023-04-16T08:51:21;25.73;;;16.93;;
20721;SDS011;10522;52.198;9.890;2023-04-16T08:53:51;26.90;;;18.27;;
20721;SDS011;10522;52.198;9.890;2023-04-16T08:56:22;24.80;;;17.53;;
20721;SDS011;10522;52.198;9.890;2023-04-16T08:58:49;31.83;;;20.23;;
20721;SDS011;10522;52.198;9.890;2023-04-16T09:01:18;31.37;;;19.40;;
20721;SDS011;10522;52.198;9.890;2023-04-16T09:03:48;31.97;;;18.37;;
20721;SDS011;10522;52.198;9.890;2023-04-16T09:06:14;24.93;;;17.53;;
20721;SDS011;10522;52.198;9.890;2023-04-16T09:08:40;27.20;;;16.27;;
20721;SDS011;10522;52.198;9.890;2023-04-16T09:11:08;26.13;;;18.47;;
20721;SDS011;10522;52.198;9.890;2023-04-16T09:13:34;25.77;;;18.43;;
20721;SDS011;10522;52.198;9.890;2023-04-16T09:16:02;28.23;;;16.93;;
20721;SDS011;10522;52.198;9.890;2023-04-16T09:18:29;26.93;;;17.73;;
20721;SDS011;10522;52.198;9.890;2023-04-16T09:20:55;27.37;;;17.77;;
20721;SDS011;10522;52.198;9.890;2023-04-16T09:23:21;24.37;;;17.00;;
20721;SDS011;10522;52.198;9.890;2023-04-16T09:25:46;28.10;;;17.97;;
20721;SDS011;10522;52.198;9.890;2023-04-16T09:28:12;29.90;;;18.00;;
20721;SDS011;10522;52.198;9.890;2023-04-16T09:31:14;27.90;;;17.83;;
20721;SDS011;10522;52.198;9.890;2023-04-16T09:33:42;30.50;;;18.17;;
20721;SDS011;10522;52.198;9.890;2023-04-16T09:36:08;31.60;;;17.30;;
20721;SDS011;10522;52.198;9.890;2023-04-16T09:38:44;28.43;;;18.50;;
20721;SDS011;10522;52.198;9.890;2023-04-16T09:41:11;27.97;;;17.43;;
20721;SDS011;10522;52.198;9.890;2023-04-16T09:43:40;25.23;;;17.47;;
20721;SDS011;10522;52.198;9.890;2023-04-16T09:46:13;25.63;;;17.50;;
20721;SDS011;10522;52.198;9.890;2023-04-16T09:48:38;28.03;;;17.90;;
20721;SDS011;10522;52.198;9.890;2023-04-16T09:51:04;27.40;;;17.97;;
20721;SDS011;10522;52.198;9.890;2023-04-16T09:53:31;28.00;;;17.53;;
20721;SDS011;10522;52.198;9.890;2023-04-16T09:56:01;33.03;;;18.60;;
20721;SDS011;10522;52.198;9.890;2023-04-16T09:58:27;32.17;;;19.30;;
20721;SDS011;10522;52.198;9.890;2023-04-16T10:01:00;29.90;;;19.43;;
20721;SDS011;10522;52.198;9.890;2023-04-16T10:03:30;38.73;;;19.33;;
20721;SDS011;10522;52.198;9.890;2023-04-16T10:06:06;29.63;;;19.93;;
20721;SDS011;10522;52.198;9.890;2023-04-16T10:08:47;33.27;;;18.70;;
20721;SDS011;10522;52.198;9.890;2023-04-16T10:11:15;26.30;;;15.87;;
20721;SDS011;10522;52.198;9.890;2023-04-16T10:13:42;31.17;;;19.97;;
20721;SDS011;10522;52.198;9.890;2023-04-16T10:16:08;30.87;;;18.47;;
20721;SDS011;10522;52.198;9.890;2023-04-16T10:18:41;24.77;;;17.23;;
20721;SDS011;10522;52.198;9.890;2023-04-16T10:21:07;28.20;;;17.90;;
20721;SDS011;10522;52.198;9.890;2023-04-16T10:23:36;27.90;;;18.93;;
20721;SDS011;10522;52.198;9.890;2023-04-16T10:26:06;29.57;;;18.73;;
20721;SDS011;10522;52.198;9.890;2023-04-16T10:28:31;30.23;;;19.50;;
20721;SDS011;10522;52.198;9.890;2023-04-16T10:30:59;29.93;;;19.20;;
20721;SDS011;10522;52.198;9.890;2023-04-16T10:33:27;32.50;;;19.87;;
20721;SDS011;10522;52.198;9.890;2023-04-16T10:36:06;29.10;;;19.27;;
20721;SDS011;10522;52.198;9.890;2023-04-16T10:38:47;28.43;;;19.57;;
20721;SDS011;10522;52.198;9.890;2023-04-16T10:41:14;27.40;;;19.23;;
20721;SDS011;10522;52.198;9.890;2023-04-16T10:43:42;27.20;;;18.63;;
20721;SDS011;10522;52.198;9.890;2023-04-16T10:46:25;29.47;;;19.73;;
20721;SDS011;10522;52.198;9.890;2023-04-16T10:49:02;30.17;;;19.93;;
20721;SDS011;10522;52.198;9.890;2023-04-16T10:51:39;27.70;;;19.00;;
20721;SDS011;10522;52.198;9.890;2023-04-16T10:56:36;28.00;;;20.37;;
20721;SDS011;10522;52.198;9.890;2023-04-16T10:59:05;30.50;;;20.40;;
20721;SDS011;10522;52.198;9.890;2023-04-16T11:01:40;30.03;;;20.43;;
20721;SDS011;10522;52.198;9.890;2023-04-16T11:07:01;25.20;;;19.00;;
20721;SDS011;10522;52.198;9.890;2023-04-16T11:12:10;28.57;;;20.47;;
20721;SDS011;10522;52.198;9.890;2023-04-16T11:14:38;27.50;;;20.20;;
20721;SDS011;10522;52.198;9.890;2023-04-16T11:17:05;30.73;;;19.67;;
20721;SDS011;10522;52.198;9.890;2023-04-16T11:19:31;25.30;;;18.90;;
20721;SDS011;10522;52.198;9.890;2023-04-16T11:21:57;25.80;;;19.97;;
20721;SDS011;10522;52.198;9.890;2023-04-16T11:24:23;25.70;;;19.03;;
20721;SDS011;10522;52.198;9.890;2023-04-16T11:26:53;27.80;;;20.17;;
20721;SDS011;10522;52.198;9.890;2023-04-16T11:29:19;28.27;;;20.83;;
20721;SDS011;10522;52.198;9.890;2023-04-16T11:31:48;28.53;;;21.27;;
20721;SDS011;10522;52.198;9.890;2023-04-16T11:34:15;29.67;;;21.57;;
20721;SDS011;10522;52.198;9.890;2023-04-16T11:36:43;29.53;;;21.83;;
20721;SDS011;10522;52.198;9.890;2023-04-16T11:39:10;27.23;;;22.67;;
20721;SDS011;10522;52.198;9.890;2023-04-16T11:41:41;28.03;;;21.50;;
20721;SDS011;10522;52.198;9.890;2023-04-16T11:44:17;28.90;;;20.50;;
20721;SDS011;10522;52.198;9.890;2023-04-16T11:46:43;26.73;;;21.13;;
20721;SDS011;10522;52.198;9.890;2023-04-16T11:49:08;30.67;;;22.40;;
20721;SDS011;10522;52.198;9.890;2023-04-16T11:51:40;31.13;;;21.27;;
20721;SDS011;10522;52.198;9.890;2023-04-16T11:54:07;31.30;;;22.03;;
20721;SDS011;10522;52.198;9.890;2023-04-16T11:56:34;28.27;;;22.03;;
20721;SDS011;10522;52.198;9.890;2023-04-16T11:59:10;28.27;;;21.13;;
20721;SDS011;10522;52.198;9.890;2023-04-16T12:01:36;26.10;;;19.93;;
20721;SDS011;10522;52.198;9.890;2023-04-16T12:04:03;27.10;;;20.90;;
20721;SDS011;10522;52.198;9.890;2023-04-16T12:06:29;27.23;;;20.93;;
20721;SDS011;10522;52.198;9.890;2023-04-16T12:08:56;31.27;;;21.97;;
20721;SDS011;10522;52.198;9.890;2023-04-16T12:11:38;29.73;;;21.93;;
20721;SDS011;10522;52.198;9.890;2023-04-16T12:14:08;28.30;;;20.33;;
20721;SDS011;10522;52.198;9.890;2023-04-16T12:16:34;30.37;;;21.90;;
20721;SDS011;10522;52.198;9.890;2023-04-16T12:19:00;28.67;;;21.30;;
20721;SDS011;10522;52.198;9.890;2023-04-16T12:21:34;30.37;;;22.93;;
20721;SDS011;10522;52.198;9.890;2023-04-16T12:24:01;28.27;;;20.60;;
20721;SDS011;10522;52.198;9.890;2023-04-16T12:26:34;30.00;;;22.37;;
20721;SDS011;10522;52.198;9.890;2023-04-16T12:31:42;30.90;;;23.37;;
20721;SDS011;10522;52.198;9.890;2023-04-16T12:34:08;32.53;;;24.47;;
20721;SDS011;10522;52.198;9.890;2023-04-16T12:36:34;30.63;;;23.23;;
20721;SDS011;10522;52.198;9.890;2023-04-16T12:39:00;34.30;;;25.30;;
20721;SDS011;10522;52.198;9.890;2023-04-16T12:41:27;38.17;;;26.30;;
20721;SDS011;10522;52.198;9.890;2023-04-16T12:44:01;33.90;;;23.83;;
20721;SDS011;10522;52.198;9.890;2023-04-16T12:46:33;31.40;;;24.63;;
20721;SDS011;10522;52.198;9.890;2023-04-16T12:49:05;34.93;;;25.13;;
20721;SDS011;10522;52.198;9.890;2023-04-16T12:51:31;32.67;;;23.73;;
20721;SDS011;10522;52.198;9.890;2023-04-16T12:53:58;31.97;;;23.93;;
20721;SDS011;10522;52.198;9.890;2023-04-16T12:56:25;35.33;;;24.40;;
20721;SDS011;10522;52.198;9.890;2023-04-16T12:58:51;32.57;;;24.40;;
20721;SDS011;10522;52.198;9.890;2023-04-16T13:01:18;38.90;;;27.60;;
20721;SDS011;10522;52.198;9.890;2023-04-16T13:03:44;33.60;;;26.03;;
20721;SDS011;10522;52.198;9.890;2023-04-16T13:06:10;37.77;;;26.90;;
20721;SDS011;10522;52.198;9.890;2023-04-16T13:08:37;34.97;;;27.10;;
20721;SDS011;10522;52.198;9.890;2023-04-16T13:11:02;34.47;;;25.67;;
20721;SDS011;10522;52.198;9.890;2023-04-16T13:13:28;35.00;;;25.80;;
20721;SDS011;10522;52.198;9.890;2023-04-16T13:15:53;35.23;;;27.17;;
20721;SDS011;10522;52.198;9.890;2023-04-16T13:18:19;34.97;;;25.77;;
20721;SDS011;10522;52.198;9.890;2023-04-16T13:20:45;37.83;;;26.80;;
20721;SDS011;10522;52.198;9.890;2023-04-16T13:23:10;33.60;;;25.13;;
20721;SDS011;10522;52.198;9.890;2023-04-16T13:25:36;39.40;;;28.40;;
20721;SDS011;10522;52.198;9.890;2023-04-16T13:28:02;40.63;;;27.73;;
20721;SDS011;10522;52.198;9.890;2023-04-16T13:30:27;42.77;;;28.83;;
20721;SDS011;10522;52.198;9.890;2023-04-16T13:32:53;40.33;;;28.70;;
20721;SDS011;10522;52.198;9.890;2023-04-16T13:35:20;42.27;;;28.17;;
20721;SDS011;10522;52.198;9.890;2023-04-16T13:37:45;40.73;;;28.43;;
20721;SDS011;10522;52.198;9.890;2023-04-16T13:40:11;38.47;;;26.63;;
20721;SDS011;10522;52.198;9.890;2023-04-16T13:42:37;37.77;;;26.00;;
20721;SDS011;10522;52.198;9.890;2023-04-16T13:45:02;41.80;;;30.73;;
20721;SDS011;10522;52.198;9.890;2023-04-16T13:47:28;38.60;;;28.40;;
20721;SDS011;10522;52.198;9.890;2023-04-16T13:49:54;43.63;;;29.30;;
20721;SDS011;10522;52.198;9.890;2023-04-16T13:52:19;41.03;;;31.33;;
20721;SDS011;10522;52.198;9.890;2023-04-16T13:54:45;41.77;;;29.00;;
20721;SDS011;10522;52.198;9.890;2023-04-16T13:57:11;38.30;;;28.80;;
20721;SDS011;10522;52.198;9.890;2023-04-16T13:59:36;38.27;;;28.17;;
20721;SDS011;10522;52.198;9.890;2023-04-16T14:02:02;35.43;;;27.17;;
20721;SDS011;10522;52.198;9.890;2023-04-16T14:04:29;35.97;;;25.80;;
20721;SDS011;10522;52.198;9.890;2023-04-16T14:06:55;40.00;;;26.83;;
20721;SDS011;10522;52.198;9.890;2023-04-16T14:09:21;35.47;;;26.13;;
20721;SDS011;10522;52.198;9.890;2023-04-16T14:11:46;34.80;;;25.63;;
20721;SDS011;10522;52.198;9.890;2023-04-16T14:14:12;32.73;;;22.87;;
20721;SDS011;10522;52.198;9.890;2023-04-16T14:16:38;31.33;;;25.23;;
20721;SDS011;10522;52.198;9.890;2023-04-16T14:19:03;30.27;;;22.97;;
20721;SDS011;10522;52.198;9.890;2023-04-16T14:21:29;29.87;;;22.30;;
20721;SDS011;10522;52.198;9.890;2023-04-16T14:23:55;35.10;;;23.27;;
20721;SDS011;10522;52.198;9.890;2023-04-16T14:26:21;35.63;;;23.63;;
20721;SDS011;10522;52.198;9.890;2023-04-16T14:28:47;35.53;;;24.80;;